aviador You're here:

OISR Decoded Metar

LAMERD in IRAN
Report Time2017-08-18 04:00:00
UTC Time2017-08-18 04:56:18
Flight Rules ifr IFR
Wind290° at 04 kt
W.Decomp.*RWY 29: 4.0 kt HW 0.1 kt LCW
W.Rank290° ranks 3
Current wind is below 290° avg. (8.0)
Visibility3000 m
Phenomena:Widespread Dust
Clouds:Scattered 040 Hf
Expected CloudBase > 4,400 ft AGL from Temp-Dew spread
CeilingNone
Temp32°C (ISA +20)
Dew Point21°C (52% RH)
Heat Index34.9°C
QNH1005 hPa
Density Alt4,177 ft
Elevation1,337 ft
Report Wrong Elevation
Raw Report
METAR OISR 180400Z 29004KT 3000 DU SCT040 32/21 Q1005=

Extra information for OISR:More info

Metar Taf Metar & Taf Last 4 Metars F.Rules Stats Wind Profile Meteogram Temp Stats Airport Information Weather charts Add Link Nearby VenuesMetar ALERT Operation Metar Decoded Social comments